Data for 01/04/2007

Time Sea-Level Adjusted Pressure Absolute Pressure Temperature Relative Humidity Dew Point   
(mb) (inHg) (mb) (inHg) (C) (F) (%) (C) (F)
00:05 1002 29.59 831 24.54 4.4 39.9 56 -3.5 25.6
00:10 1002 29.59 831 24.54 4.4 39.9 56 -3.5 25.7
00:15 1002 29.59 831 24.54 4.5 40.1 57 -3.3 26
00:20 1002 29.59 831 24.54 4.4 40 58 -3.2 26.3
00:25 1002 29.59 831 24.54 4.2 39.6 60 -2.9 26.8
00:30 1002 29.59 831 24.54 3.9 39 63 -2.5 27.4
00:35 1002 29.59 831 24.54 3.6 38.6 65 -2.2 28
00:40 1002 29.59 831 24.54 3.5 38.3 68 -2 28.5
00:45 1002 29.59 831 24.54 3.3 38 69 -1.9 28.7
00:50 1002 29.59 831 24.54 3.2 37.8 70 -1.7 28.9
00:55 1002 29.59 831 24.54 3 37.5 71 -1.6 29.1
01:00 1002 29.59 831 24.54 2.9 37.3 72 -1.6 29.1
01:05 1002 29.59 831 24.54 3 37.3 72 -1.7 29
01:10 1002 29.59 831 24.54 3 37.4 71 -1.7 29
01:15 1002 29.59 831 24.54 3 37.4 72 -1.6 29
01:20 1003 29.62 832 24.57 3 37.4 73 -1.3 29.7
01:25 1003 29.62 832 24.57 2.3 36.2 82 -0.4 31.3
01:30 1003 29.62 832 24.57 1.5 34.6 88 -0.4 31.3
01:35 1003 29.62 832 24.57 1 33.8 90 -0.5 31.1
01:40 1003 29.62 833 24.6 0.8 33.4 92 -0.4 31.2
01:45 1003 29.62 833 24.6 0.7 33.2 92 -0.5 31.2
01:50 1004 29.65 833 24.6 0.7 33.2 92 -0.5 31.2
01:55 1004 29.65 833 24.6 0.7 33.2 92 -0.4 31.2
02:00 1004 29.65 833 24.6 0.7 33.3 92 -0.4 31.3
02:05 1004 29.65 833 24.6 0.6 33.2 93 -0.4 31.3
02:10 1004 29.65 833 24.6 0.7 33.2 93 -0.4 31.3
02:15 1004 29.65 833 24.6 0.6 33.2 92 -0.5 31.1
02:20 1004 29.65 833 24.6 0.6 33 93 -0.4 31.2
02:25 1004 29.65 833 24.6 0.5 32.8 93 -0.5 31.1
02:30 1004 29.65 833 24.6 0.4 32.8 93 -0.6 30.9
02:35 1004 29.65 834 24.63 0.4 32.7 93 -0.6 30.9
02:40 1005 29.68 834 24.63 0.3 32.5 94 -0.6 30.9
02:45 1005 29.68 834 24.63 -0.5 31 94 -1.3 29.6
02:50 1005 29.68 834 24.63 -1.2 29.9 96 -1.7 28.9
02:55 1005 29.68 834 24.63 -1.2 29.8 97 -1.7 29
03:00 1005 29.68 834 24.63 -1.2 29.8 97 -1.6 29.2
03:05 1005 29.68 834 24.63 -1.2 29.9 97 -1.5 29.2
03:10 1005 29.68 834 24.63 -1.1 30 97 -1.5 29.3
03:15 1005 29.68 835 24.66 -1 30.1 97 -1.5 29.4
03:20 1005 29.68 834 24.63 -1.2 29.9 95 -1.9 28.6
03:25 1005 29.68 835 24.66 -1.2 29.8 94 -2.1 28.3
03:30 1005 29.68 835 24.66 -1.2 29.9 94 -2.1 28.2
03:35 1006 29.71 835 24.66 -1.2 29.9 93 -2.2 28.1
03:40 1006 29.71 835 24.66 -1.3 29.7 92 -2.4 27.7
03:45 1006 29.71 835 24.66 -1.4 29.5 93 -2.3 27.8
03:50 1006 29.71 835 24.66 -1.3 29.6 93 -2.4 27.7
03:55 1006 29.71 835 24.66 -1.3 29.6 93 -2.4 27.7
04:00 1006 29.71 835 24.66 -1.4 29.5 92 -2.5 27.5
04:05 1006 29.71 835 24.66 -1.5 29.3 92 -2.6 27.3
04:10 1006 29.71 835 24.66 -1.7 28.9 93 -2.7 27.1
04:15 1006 29.71 835 24.66 -1.7 28.9 94 -2.6 27.3
04:20 1006 29.71 835 24.66 -1.6 29.1 94 -2.4 27.7
04:25 1006 29.71 835 24.66 -1.7 28.9 95 -2.5 27.6
04:30 1006 29.71 835 24.66 -1.8 28.7 96 -2.5 27.6
04:35 1006 29.71 835 24.66 -1.9 28.7 96 -2.4 27.7
04:40 1006 29.71 835 24.66 -1.9 28.6 97 -2.3 27.8
04:45 1006 29.71 835 24.66 -1.8 28.7 97 -2.3 27.8
04:50 1006 29.71 835 24.66 -1.9 28.6 96 -2.4 27.7
04:55 1006 29.71 835 24.66 -1.9 28.7 96 -2.4 27.7
05:00 1006 29.71 835 24.66 -1.7 28.9 95 -2.4 27.6
05:05 1006 29.71 835 24.66 -1.7 29 94 -2.5 27.5
05:10 1006 29.71 835 24.66 -1.7 28.9 94 -2.6 27.4
05:15 1006 29.71 835 24.66 -1.7 29 91 -2.9 26.7
05:20 1006 29.71 835 24.66 -1.5 29.2 90 -3 26.7
05:25 1006 29.71 835 24.66 -1.4 29.5 88 -3.2 26.3
05:30 1006 29.71 835 24.66 -1.3 29.6 87 -3.2 26.3
05:35 1006 29.71 835 24.66 -1.2 29.9 86 -3.2 26.3
05:40 1006 29.71 836 24.69 -1.1 30 87 -3 26.6
05:45 1006 29.71 836 24.69 -1.3 29.6 88 -3.1 26.4
05:50 1006 29.71 836 24.69 -1.7 28.9 88 -3.4 25.9
05:55 1007 29.74 836 24.69 -1.7 29 85 -3.8 25.1
06:00 1007 29.74 836 24.69 -1.5 29.4 84 -3.8 25.1
06:05 1007 29.74 836 24.69 -1.5 29.3 82 -4.3 24.3
06:10 1007 29.74 836 24.69 -1.5 29.3 78 -4.8 23.4
06:15 1007 29.74 836 24.69 -1.6 29.2 77 -5.2 22.7
06:20 1007 29.74 836 24.69 -1.5 29.2 75 -5.4 22.3
06:25 1007 29.74 836 24.69 -1.6 29.1 75 -5.5 22.1
06:30 1007 29.74 836 24.69 -1.7 29 74 -5.8 21.6
06:35 1007 29.74 836 24.69 -2.1 28.3 74 -6.2 20.9
06:40 1007 29.74 836 24.69 -2.2 28.1 73 -6.4 20.5
06:45 1007 29.74 836 24.69 -2 28.4 71 -6.6 20.1
06:50 1007 29.74 836 24.69 -2.1 28.2 72 -6.6 20.2
06:55 1007 29.74 836 24.69 -2 28.4 71 -6.6 20.1
07:00 1007 29.74 836 24.69 -2 28.4 70 -6.7 19.9
07:05 1007 29.74 836 24.69 -2.3 27.9 70 -7 19.4
07:10 1007 29.74 836 24.69 -2.2 28 70 -7 19.4
07:15 1007 29.74 836 24.69 -2.3 27.9 68 -7.3 18.8
07:20 1007 29.74 836 24.69 -2.5 27.5 69 -7.4 18.7
07:25 1007 29.74 836 24.69 -2.2 28.1 67 -7.6 18.4
07:30 1007 29.74 836 24.69 -2.1 28.1 66 -7.7 18.2
07:35 1007 29.74 836 24.69 -2.2 28 65 -8 17.6
07:40 1007 29.74 836 24.69 -2.1 28.3 63 -8.2 17.3
07:45 1007 29.74 836 24.69 -1.9 28.6 62 -8.2 17.3
07:50 1007 29.74 836 24.69 -1.6 29.2 60 -8.2 17.2
07:55 1007 29.74 836 24.69 -1.3 29.6 60 -8.2 17.2
08:00 1007 29.74 836 24.69 -1.7 29 65 -7.5 18.6
08:05 1007 29.74 836 24.69 -2.1 28.2 66 -7.6 18.3
08:10 1007 29.74 836 24.69 -2 28.5 66 -7.5 18.5
08:15 1007 29.74 836 24.69 -1.7 29 66 -7.3 18.9
08:20 1007 29.74 836 24.69 -1.6 29.2 66 -7.2 19.1
08:25 1007 29.74 837 24.72 -1.5 29.3 67 -6.9 19.6
08:30 1007 29.74 837 24.72 -1.5 29.4 67 -6.9 19.6
08:35 1007 29.74 837 24.72 -1.3 29.7 62 -7.7 18.2
08:40 1007 29.74 837 24.72 -1 30.2 62 -7.5 18.5
08:45 1008 29.77 837 24.72 -1 30.2 62 -7.4 18.7
08:50 1008 29.77 837 24.72 -1.1 30.1 66 -6.7 19.9
08:55 1008 29.77 837 24.72 -1 30.2 68 -6.2 20.8
09:00 1008 29.77 837 24.72 -0.9 30.5 69 -5.9 21.4
09:05 1008 29.77 837 24.72 -0.9 30.4 70 -5.8 21.6
09:10 1008 29.77 837 24.72 -1.4 29.5 70 -6.2 20.8
09:15 1008 29.77 837 24.72 -1.8 28.7 66 -7.3 18.9
09:20 1008 29.77 837 24.72 -1.6 29.2 65 -7.4 18.8
09:25 1008 29.77 837 24.72 -1.1 30 61 -7.7 18.2
09:30 1008 29.77 837 24.72 -1 30.2 62 -7.3 18.8
09:35 1008 29.77 837 24.72 -1.2 29.9 64 -7.2 19.1
09:40 1008 29.77 837 24.72 -1.7 29 64 -7.6 18.3
09:45 1008 29.77 837 24.72 -1.3 29.7 60 -8.1 17.4
09:50 1008 29.77 837 24.72 -1 30.2 59 -8 17.7
09:55 1008 29.77 837 24.72 -0.9 30.4 58 -8.2 17.2
10:00 1008 29.77 837 24.72 -0.6 31 55 -8.5 16.8
10:05 1008 29.77 837 24.72 -0.7 30.7 56 -8.4 16.9
10:10 1008 29.77 837 24.72 -0.7 30.8 54 -8.8 16.1
10:15 1008 29.77 837 24.72 -0.4 31.3 53 -8.8 16.1
10:20 1008 29.77 837 24.72 -0.4 31.3 53 -8.8 16.2
10:25 1008 29.77 837 24.72 -0.4 31.4 52 -9.1 15.6
10:30 1008 29.77 837 24.72 -0.4 31.3 51 -9.3 15.3
10:35 1008 29.77 837 24.72 -0.4 31.2 51 -9.3 15.3
10:40 1008 29.77 837 24.72 -0.4 31.3 51 -9.4 15.1
10:45 1008 29.77 837 24.72 -0.3 31.5 50 -9.6 14.7
10:50 1008 29.77 837 24.72 -0.1 31.8 48 -9.9 14.2
10:55 1008 29.77 837 24.72 -0.3 31.5 47 -10.2 13.6
11:00 1008 29.77 837 24.72 -0.4 31.2 48 -10.2 13.6
11:05 1007 29.74 837 24.72 -0.5 31.1 46 -10.8 12.5
11:10 1007 29.74 837 24.72 -0.4 31.2 45 -11 12.2
11:15 1007 29.74 837 24.72 -0.1 31.7 44 -11 12.3
11:20 1007 29.74 836 24.69 0.2 32.3 43 -10.9 12.4
11:25 1007 29.74 836 24.69 0 32.1 45 -10.6 12.9
11:30 1007 29.74 836 24.69 0.3 32.5 44 -10.7 12.7
11:35 1007 29.74 836 24.69 0.4 32.7 43 -10.7 12.8
11:40 1007 29.74 836 24.69 0.5 32.8 43 -10.6 12.8
11:45 1007 29.74 836 24.69 0.7 33.2 43 -10.5 13.1
11:50 1007 29.74 836 24.69 1 33.8 41 -10.7 12.8
11:55 1007 29.74 836 24.69 1.2 34.2 38 -11.5 11.3
12:00 1007 29.74 836 24.69 1.8 35.3 37 -11.2 11.8
12:05 1007 29.74 836 24.69 2 35.6 37 -11.1 12
12:10 1007 29.74 836 24.69 2.5 36.5 35 -11.4 11.4
12:15 1007 29.74 836 24.69 2.7 36.9 33 -12 10.4
12:20 1007 29.74 836 24.69 2.8 37.1 32 -12.4 9.7
12:25 1007 29.74 836 24.69 2.8 37 33 -12 10.5
12:30 1007 29.74 836 24.69 2.9 37.2 32 -12.2 10.1
12:35 1007 29.74 836 24.69 3 37.4 32 -12 10.4
12:40 1007 29.74 836 24.69 2.9 37.3 31 -12.5 9.5
12:45 1007 29.74 836 24.69 2.9 37.3 32 -12.1 10.1
12:50 1007 29.74 836 24.69 2.8 37.1 31 -12.8 9
12:55 1007 29.74 836 24.69 2.7 36.9 31 -12.8 8.9
13:00 1007 29.74 836 24.69 2.7 36.9 33 -12.1 10.2
13:05 1007 29.74 836 24.69 2.8 37.1 33 -12 10.4
13:10 1007 29.74 836 24.69 2.8 37 32 -12.2 10.1
13:15 1007 29.74 836 24.69 2.6 36.7 33 -12.3 9.9
13:20 1007 29.74 836 24.69 2.6 36.7 33 -12 10.4
13:25 1007 29.74 836 24.69 2.4 36.3 35 -11.7 11
13:30 1007 29.74 836 24.69 1.8 35.2 34 -12.5 9.4
13:35 1007 29.74 836 24.69 1.3 34.3 34 -12.8 8.9
13:40 1007 29.74 836 24.69 0.8 33.4 37 -12.4 9.6
13:45 1007 29.74 836 24.69 0.7 33.2 37 -12.4 9.8
13:50 1007 29.74 836 24.69 0.9 33.6 38 -11.9 10.5
13:55 1007 29.74 836 24.69 1.5 34.8 37 -11.7 10.9
14:00 1007 29.74 836 24.69 2.8 37 34 -11.7 10.9
14:05 1007 29.74 836 24.69 3.5 38.4 32 -11.9 10.7
14:10 1007 29.74 836 24.69 3.4 38.2 33 -11.4 11.5
14:15 1007 29.74 836 24.69 2.8 37.1 34 -11.7 11
14:20 1007 29.74 836 24.69 2.3 36.1 35 -11.5 11.2
14:25 1007 29.74 836 24.69 2.8 37 33 -12.1 10.2
14:30 1007 29.74 836 24.69 2.4 36.3 34 -11.8 10.7
14:35 1007 29.74 836 24.69 2.7 36.9 33 -12.2 10.1
14:40 1007 29.74 836 24.69 2.3 36.1 33 -12.3 9.8
14:45 1007 29.74 836 24.69 1.6 34.8 34 -12.8 8.9
14:50 1007 29.74 836 24.69 1.2 34.2 36 -12.4 9.6
14:55 1007 29.74 836 24.69 1.1 34 40 -11 12.2
15:00 1007 29.74 836 24.69 1.1 33.9 41 -10.7 12.7
15:05 1007 29.74 836 24.69 1.1 34 40 -11.1 12.1
15:10 1007 29.74 836 24.69 1.2 34.1 40 -10.9 12.4
15:15 1007 29.74 836 24.69 0.9 33.6 43 -10.4 13.3
15:20 1007 29.74 836 24.69 0.5 32.9 44 -10.4 13.2
15:25 1007 29.74 837 24.72 0.2 32.4 45 -10.4 13.4
15:30 1007 29.74 837 24.72 0.1 32.2 47 -9.8 14.4
15:35 1007 29.74 837 24.72 -0.2 31.7 49 -9.5 14.8
15:40 1008 29.77 837 24.72 -0.1 31.8 49 -9.6 14.7
15:45 1008 29.77 837 24.72 -0.2 31.6 50 -9.4 15.1
15:50 1008 29.77 837 24.72 -0.3 31.4 51 -9.2 15.4
15:55 1008 29.77 837 24.72 -0.4 31.4 53 -8.8 16.2
16:00 1008 29.77 837 24.72 -0.4 31.3 52 -9 15.8
16:05 1008 29.77 837 24.72 -0.4 31.3 52 -9 15.8
16:10 1008 29.77 837 24.72 -0.5 31.1 56 -8.3 17
16:15 1008 29.77 837 24.72 -0.8 30.6 58 -8.1 17.5
16:20 1008 29.77 837 24.72 -0.9 30.3 60 -7.8 18
16:25 1008 29.77 837 24.72 -1 30.2 60 -7.7 18.1
16:30 1008 29.77 837 24.72 -1.2 29.9 68 -6.4 20.6
16:35 1008 29.77 838 24.75 -2.1 28.2 69 -7 19.4
16:40 1009 29.8 838 24.75 -2.4 27.7 70 -7.1 19.2
16:45 1008 29.77 838 24.75 -2.4 27.7 67 -7.6 18.3
16:50 1008 29.77 837 24.72 -2.5 27.6 69 -7.4 18.7
16:55 1008 29.77 837 24.72 -2.8 26.9 72 -7.2 19.1
17:00 1008 29.77 837 24.72 -3.2 26.2 77 -6.7 19.9
17:05 1008 29.77 837 24.72 -3.6 25.5 78 -6.9 19.6
17:10 1008 29.77 837 24.72 -3.6 25.6 72 -7.9 17.8
17:15 1008 29.77 837 24.72 -3.2 26.2 67 -8.5 16.6
17:20 1008 29.77 837 24.72 -3 26.6 65 -8.8 16.2
17:25 1008 29.77 837 24.72 -2.7 27.1 62 -9.1 15.7
17:30 1008 29.77 838 24.75 -2.7 27.1 63 -8.9 16
17:35 1008 29.77 838 24.75 -2.7 27.1 62 -9.1 15.7
17:40 1008 29.77 838 24.75 -2.5 27.5 60 -9.3 15.2
17:45 1009 29.8 838 24.75 -2.6 27.4 61 -9.1 15.6
17:50 1009 29.8 838 24.75 -3.7 25.4 65 -9.2 15.4
17:55 1009 29.8 838 24.75 -3.7 25.3 67 -9 15.8
18:00 1009 29.8 838 24.75 -3.4 25.9 66 -8.8 16.2
18:05 1009 29.8 838 24.75 -3.3 26.1 68 -8.3 17
18:10 1009 29.8 838 24.75 -3.5 25.7 70 -8.1 17.3
18:15 1009 29.8 838 24.75 -3.5 25.7 69 -8.4 17
18:20 1009 29.8 838 24.75 -3.4 26 68 -8.4 16.9
18:25 1009 29.8 838 24.75 -3.3 26.1 67 -8.5 16.7
18:30 1009 29.8 838 24.75 -3.2 26.3 66 -8.7 16.3
18:35 1009 29.8 838 24.75 -3.2 26.2 66 -8.8 16.2
18:40 1009 29.8 838 24.75 -3.5 25.6 68 -8.5 16.7
18:45 1009 29.8 838 24.75 -3.7 25.3 69 -8.7 16.4
18:50 1009 29.8 838 24.75 -3.6 25.5 68 -8.8 16.2
18:55 1009 29.8 838 24.75 -3.3 26 67 -8.7 16.4
19:00 1009 29.8 838 24.75 -3.2 26.3 64 -9.1 15.7
19:05 1009 29.8 838 24.75 -3.1 26.5 64 -9 15.8
19:10 1009 29.8 839 24.78 -3.1 26.5 64 -8.9 16
19:15 1009 29.8 839 24.78 -3 26.6 62 -9.2 15.5
19:20 1009 29.8 839 24.78 -2.9 26.7 60 -9.6 14.6
19:25 1009 29.8 839 24.78 -2.8 26.9 59 -9.7 14.5
19:30 1010 29.83 839 24.78 -3 26.6 58 -10.1 13.9
19:35 1010 29.83 839 24.78 -2.9 26.7 58 -10.1 13.8
19:40 1010 29.83 839 24.78 -3 26.7 57 -10.2 13.6
19:45 1010 29.83 839 24.78 -3.1 26.4 57 -10.4 13.3
19:50 1010 29.83 839 24.78 -3.2 26.2 57 -10.5 13.1
19:55 1010 29.83 839 24.78 -3.3 26 57 -10.6 12.9
20:00 1010 29.83 839 24.78 -3.4 25.8 54 -11.4 11.5
20:05 1010 29.83 839 24.78 -3.4 25.9 55 -11.2 11.8
20:10 1010 29.83 839 24.78 -3.4 25.9 54 -11.3 11.7
20:15 1010 29.83 839 24.78 -3.3 26.1 53 -11.5 11.3
20:20 1010 29.83 839 24.78 -3.3 26 53 -11.7 11
20:25 1010 29.83 839 24.78 -3.3 26 52 -11.9 10.7
20:30 1010 29.83 839 24.78 -3.3 26.1 52 -11.9 10.6
20:35 1010 29.83 839 24.78 -3.5 25.7 54 -11.6 11.1
20:40 1010 29.83 839 24.78 -3.8 25.1 55 -11.7 11
20:45 1010 29.83 839 24.78 -3.8 25.2 54 -11.9 10.6
20:50 1010 29.83 839 24.78 -3.7 25.4 54 -11.7 11
20:55 1010 29.83 839 24.78 -3.6 25.5 53 -11.8 10.8
21:00 1010 29.83 839 24.78 -3.6 25.5 54 -11.5 11.2
21:05 1010 29.83 839 24.78 -3.8 25.2 56 -11.3 11.7
21:10 1010 29.83 839 24.78 -3.8 25.1 54 -11.8 10.7
21:15 1010 29.83 839 24.78 -3.5 25.7 52 -12 10.3
21:20 1010 29.83 839 24.78 -3.3 26.1 52 -11.7 10.9
21:25 1010 29.83 839 24.78 -3.4 25.8 54 -11.4 11.4
21:30 1010 29.83 839 24.78 -4.3 24.2 58 -11.3 11.6
21:35 1010 29.83 839 24.78 -4.7 23.6 58 -11.7 10.9
21:40 1010 29.83 839 24.78 -4.3 24.2 56 -11.7 10.9
21:45 1010 29.83 839 24.78 -4.2 24.5 57 -11.5 11.4
21:50 1010 29.83 839 24.78 -4 24.7 58 -11.2 11.9
21:55 1010 29.83 839 24.78 -4.1 24.7 58 -11.1 11.9
22:00 1010 29.83 839 24.78 -4.1 24.5 58 -11.2 11.8
22:05 1010 29.83 839 24.78 -4.4 24 59 -11.2 11.9
22:10 1010 29.83 839 24.78 -4.5 23.9 59 -11.4 11.5
22:15 1010 29.83 839 24.78 -4.7 23.6 61 -11.2 11.9
22:20 1010 29.83 839 24.78 -5 23 62 -11.2 11.8
22:25 1010 29.83 839 24.78 -5.1 22.8 60 -11.7 10.9
22:30 1010 29.83 839 24.78 -4.8 23.3 58 -11.8 10.8
22:35 1010 29.83 839 24.78 -4.5 23.9 59 -11.4 11.5
22:40 1010 29.83 839 24.78 -4.4 24.1 58 -11.4 11.4
22:45 1010 29.83 839 24.78 -4.6 23.8 60 -11.2 11.8
22:50 1010 29.83 839 24.78 -4.7 23.5 61 -11.2 11.9
22:55 1010 29.83 839 24.78 -4.8 23.4 60 -11.3 11.6
23:00 1010 29.83 839 24.78 -4.8 23.4 61 -11.2 11.8
23:05 1010 29.83 840 24.81 -4.7 23.5 61 -11.1 12
23:10 1010 29.83 840 24.81 -4.6 23.7 60 -11.3 11.7
23:15 1010 29.83 840 24.81 -4.4 24 61 -11 12.3
23:20 1010 29.83 840 24.81 -4.5 23.9 58 -11.5 11.3
23:25 1011 29.85 840 24.81 -4.4 24 59 -11.2 11.8
23:30 1011 29.85 840 24.81 -4.4 24 59 -11.2 11.9
23:35 1011 29.85 840 24.81 -4.7 23.6 62 -10.9 12.3
23:40 1011 29.85 840 24.81 -4.9 23.1 63 -10.8 12.5
23:45 1011 29.85 840 24.81 -5 23 62 -11.3 11.7
23:50 1010 29.83 840 24.81 -5.1 22.8 62 -11.3 11.7
23:55 1010 29.83 840 24.81 -5.5 22 63 -11.5 11.4
24:00 1010 29.83 840 24.81 -5.8 21.6 64 -11.5 11.3